Time;durP1;ratioP1;P1;durP2;ratioP2;P2;SDS_P1;SDS_P2;PMS_P1;PMS_P2;Temp;Humidity;BMP_temperature;BMP_pressure;BME280_temperature;BME280_humidity;BME280_pressure;Samples;Min_cycle;Max_cycle;Signal;HPM_P1;HPM_P2
2021/05/01 00:00:59;;;;;;;10.97;7.10;;;;;;;5.83;95.03;100648.44;4986768;28;20251;-73
2021/05/01 00:03:25;;;;;;;13.17;7.13;;;;;;;5.84;94.58;100641.53;4982520;28;20205;-73
2021/05/01 00:05:52;;;;;;;12.13;8.30;;;;;;;5.83;94.91;100640.66;4985196;28;20218;-73
2021/05/01 00:08:18;;;;;;;12.33;8.40;;;;;;;5.83;95.12;100630.31;4979935;28;20202;-73
2021/05/01 00:10:44;;;;;;;14.83;8.17;;;;;;;5.82;95.25;100618.28;4979335;28;20211;-73
2021/05/01 00:13:10;;;;;;;14.07;8.13;;;;;;;5.79;95.04;100620.03;4986269;28;20693;-73
2021/05/01 00:15:37;;;;;;;13.10;8.50;;;;;;;5.78;95.44;100623.47;4985443;28;20749;-74
2021/05/01 00:18:03;;;;;;;13.47;8.83;;;;;;;5.78;95.62;100628.63;4979139;28;20213;-73
2021/05/01 00:20:29;;;;;;;12.63;8.27;;;;;;;5.77;95.32;100627.78;4982229;28;20198;-73
2021/05/01 00:22:56;;;;;;;14.80;9.20;;;;;;;5.77;95.51;100635.56;4984163;28;20229;-73
2021/05/01 00:25:22;;;;;;;14.03;8.87;;;;;;;5.78;95.52;100639.84;4984145;28;20194;-73
2021/05/01 00:27:48;;;;;;;16.60;9.63;;;;;;;5.77;95.55;100645.91;4974899;28;20249;-73
2021/05/01 00:30:14;;;;;;;17.00;9.63;;;;;;;5.77;95.49;100638.13;4975175;28;20737;-73
2021/05/01 00:32:40;;;;;;;15.43;9.30;;;;;;;5.77;95.52;100643.31;4985177;28;20252;-73
2021/05/01 00:35:08;;;;;;;15.13;9.60;;;;;;;5.78;95.53;100633.81;4991161;28;20203;-73
2021/05/01 00:37:34;;;;;;;13.00;8.03;;;;;;;5.78;95.81;100628.63;4984471;28;20240;-73
2021/05/01 00:40:00;;;;;;;14.33;9.20;;;;;;;5.77;95.74;100630.38;4984012;28;20693;-73
2021/05/01 00:42:26;;;;;;;14.97;9.60;;;;;;;5.75;95.89;100619.19;4985776;28;20205;-73
2021/05/01 00:44:52;;;;;;;15.20;8.40;;;;;;;5.76;95.89;100622.63;4986410;28;21069;-73
2021/05/01 00:47:18;;;;;;;17.07;9.50;;;;;;;5.76;95.75;100626.06;4985757;28;20213;-73
2021/05/01 00:49:44;;;;;;;19.87;10.27;;;;;;;5.75;96.15;100619.19;4981910;28;20618;-73
2021/05/01 00:52:10;;;;;;;17.13;9.50;;;;;;;5.76;96.14;100628.66;4981169;28;20201;-73
2021/05/01 00:54:37;;;;;;;18.43;10.37;;;;;;;5.76;96.20;100638.16;4986043;28;20213;-73
2021/05/01 00:57:04;;;;;;;13.23;9.03;;;;;;;5.77;96.21;100651.06;4986686;28;20218;-73
2021/05/01 00:59:30;;;;;;;18.93;9.83;;;;;;;5.77;96.03;100650.19;4986818;28;20203;-73
2021/05/01 01:01:58;;;;;;;14.60;9.40;;;;;;;5.78;95.87;100654.50;4980194;28;20212;-73
2021/05/01 01:04:24;;;;;;;14.67;8.90;;;;;;;5.78;95.81;100652.78;4978075;28;20225;-73
2021/05/01 01:06:50;;;;;;;15.60;10.17;;;;;;;5.79;95.94;100653.66;4974226;28;20629;-73
2021/05/01 01:09:16;;;;;;;15.83;10.10;;;;;;;5.78;96.30;100636.41;4987120;28;20747;-73
2021/05/01 01:11:42;;;;;;;15.13;9.80;;;;;;;5.76;96.49;100620.88;4986871;28;20205;-73
2021/05/01 01:14:12;;;;;;;15.27;10.07;;;;;;;5.75;96.65;100620.88;4984193;28;20578;-74
2021/05/01 01:16:39;;;;;;;14.37;9.73;;;;;;;5.76;96.78;100622.63;4986599;28;20232;-73
2021/05/01 01:19:05;;;;;;;15.60;9.63;;;;;;;5.75;96.94;100619.19;4983832;28;20233;-73
2021/05/01 01:21:40;;;;;;;19.77;10.33;;;;;;;5.75;96.61;100623.47;4982163;28;20236;-73
2021/05/01 01:24:09;;;;;;;18.53;10.37;;;;;;;5.75;96.68;100620.88;4981982;28;20197;-73
2021/05/01 01:26:35;;;;;;;15.63;10.47;;;;;;;5.75;96.89;100624.34;4981366;28;20226;-73
2021/05/01 01:29:01;;;;;;;18.47;10.20;;;;;;;5.75;96.91;100613.13;4984611;28;20201;-73
2021/05/01 01:31:27;;;;;;;19.60;10.90;;;;;;;5.74;96.98;100604.50;4985883;28;20208;-73
2021/05/01 01:33:53;;;;;;;14.43;9.90;;;;;;;5.72;96.77;100598.50;4985575;28;20212;-73
2021/05/01 01:36:19;;;;;;;17.77;10.53;;;;;;;5.69;96.83;100596.78;4986962;28;20248;-73
2021/05/01 01:38:45;;;;;;;19.27;11.27;;;;;;;5.70;97.09;100600.25;4976957;28;20229;-73
2021/05/01 01:41:11;;;;;;;18.23;11.13;;;;;;;5.69;97.03;100609.72;4984001;28;20205;-73
2021/05/01 01:43:38;;;;;;;17.90;10.27;;;;;;;5.71;96.96;100611.44;4983649;28;20221;-73
2021/05/01 01:46:04;;;;;;;15.70;10.83;;;;;;;5.68;96.79;100610.59;4981021;28;20812;-73
2021/05/01 01:48:30;;;;;;;17.27;11.23;;;;;;;5.67;97.02;100614.03;4983720;28;20201;-73
2021/05/01 01:50:56;;;;;;;16.57;10.10;;;;;;;5.68;96.90;100633.88;4982552;28;20627;-73
2021/05/01 01:53:23;;;;;;;19.63;10.73;;;;;;;5.69;97.55;100619.22;4982635;28;20210;-73
2021/05/01 01:55:49;;;;;;;17.27;11.63;;;;;;;5.68;97.36;100614.88;4985276;28;20221;-73
2021/05/01 01:58:16;;;;;;;21.97;12.03;;;;;;;5.67;97.18;100610.59;4984960;28;20273;-73
2021/05/01 02:00:42;;;;;;;18.27;11.70;;;;;;;5.65;97.07;100615.78;4977822;28;21116;-73
2021/05/01 02:03:08;;;;;;;19.90;11.90;;;;;;;5.64;97.18;100618.38;4985200;28;20212;-73
2021/05/01 02:05:34;;;;;;;18.53;10.63;;;;;;;5.65;97.08;100622.69;4976742;28;20198;-73
2021/05/01 02:08:00;;;;;;;20.23;11.87;;;;;;;5.63;97.08;100611.50;4984630;28;20666;-73
2021/05/01 02:10:26;;;;;;;16.70;10.80;;;;;;;5.62;97.46;100605.44;4983809;28;20259;-73
2021/05/01 02:12:52;;;;;;;19.53;11.63;;;;;;;5.59;97.68;100620.97;4977018;28;20349;-73
2021/05/01 02:15:21;;;;;;;19.03;10.73;;;;;;;5.62;97.46;100633.03;4978137;28;20218;-73
2021/05/01 02:17:50;;;;;;;18.77;11.70;;;;;;;5.61;97.52;100629.59;4984931;28;20217;-73
2021/05/01 02:20:18;;;;;;;20.07;11.83;;;;;;;5.63;97.37;100627.88;4985832;28;20288;-73
2021/05/01 02:22:44;;;;;;;18.73;11.37;;;;;;;5.63;97.39;100622.69;4987006;28;20686;-73
2021/05/01 02:25:11;;;;;;;20.17;12.00;;;;;;;5.62;97.46;100623.56;4978717;28;20204;-73
2021/05/01 02:27:38;;;;;;;17.67;11.47;;;;;;;5.63;97.56;100612.34;4981449;28;20258;-73
2021/05/01 02:30:06;;;;;;;17.23;10.50;;;;;;;5.62;97.68;100604.59;4980364;28;20690;-73
2021/05/01 02:32:34;;;;;;;21.03;11.97;;;;;;;5.62;97.85;100604.59;4977214;28;20579;-73
2021/05/01 02:35:00;;;;;;;18.90;12.13;;;;;;;5.60;97.91;100601.16;4983661;28;20201;-73
2021/05/01 02:37:25;;;;;;;19.40;11.60;;;;;;;5.59;98.24;100600.28;4981820;28;20728;-73
2021/05/01 02:39:52;;;;;;;19.23;11.40;;;;;;;5.59;97.99;100602.03;4984876;28;20285;-73
2021/05/01 02:42:19;;;;;;;19.47;11.83;;;;;;;5.59;98.31;100595.09;4982336;28;20217;-73
2021/05/01 02:44:45;;;;;;;19.47;11.00;;;;;;;5.60;98.12;100603.75;4983166;28;20197;-73
2021/05/01 02:47:11;;;;;;;17.77;11.10;;;;;;;5.58;98.04;100606.34;4985289;28;20739;-73
2021/05/01 02:49:37;;;;;;;17.70;11.33;;;;;;;5.60;98.13;100611.50;4980352;28;20586;-73
2021/05/01 02:52:04;;;;;;;18.90;11.63;;;;;;;5.57;98.15;100598.59;4978670;28;20264;-73
2021/05/01 02:54:30;;;;;;;18.47;11.07;;;;;;;5.54;98.69;100599.47;4980351;28;20227;-73
2021/05/01 02:56:56;;;;;;;19.63;11.10;;;;;;;5.52;98.46;100593.44;4985302;28;20316;-73
2021/05/01 02:59:22;;;;;;;17.63;11.23;;;;;;;5.52;98.42;100596.00;4977068;28;20205;-73
2021/05/01 03:01:48;;;;;;;20.30;10.60;;;;;;;5.50;98.30;100583.13;4982024;28;20204;-73
2021/05/01 03:04:14;;;;;;;17.40;10.90;;;;;;;5.50;98.64;100579.66;4979348;28;20194;-73
2021/05/01 03:06:41;;;;;;;19.07;11.73;;;;;;;5.50;99.05;100577.94;4978919;28;20293;-73
2021/05/01 03:09:07;;;;;;;18.50;11.73;;;;;;;5.49;98.96;100572.78;4980529;28;20201;-73
2021/05/01 03:11:33;;;;;;;20.83;12.30;;;;;;;5.48;98.96;100579.66;4982562;28;20598;-73
2021/05/01 03:13:59;;;;;;;20.17;11.77;;;;;;;5.48;99.16;100573.63;4983514;28;20207;-73
2021/05/01 03:16:25;;;;;;;20.63;12.27;;;;;;;5.48;99.21;100573.63;4985354;28;20327;-73
2021/05/01 03:18:51;;;;;;;25.60;13.30;;;;;;;5.47;99.36;100572.78;4979084;28;20225;-73
2021/05/01 03:21:18;;;;;;;20.67;13.23;;;;;;;5.46;99.41;100565.88;4980822;28;20311;-73
2021/05/01 03:23:45;;;;;;;20.47;12.93;;;;;;;5.46;99.36;100568.47;4987500;28;20681;-73
2021/05/01 03:26:11;;;;;;;24.03;12.57;;;;;;;5.45;99.78;100559.00;4984793;28;20264;-73
2021/05/01 03:28:36;;;;;;;21.30;13.17;;;;;;;5.45;99.66;100571.06;4990320;28;20736;-73
2021/05/01 03:31:02;;;;;;;20.77;12.80;;;;;;;5.47;99.55;100572.78;4986800;28;20240;-74
2021/05/01 03:33:29;;;;;;;22.13;13.13;;;;;;;5.47;99.28;100567.63;4992155;28;20214;-73
2021/05/01 03:35:56;;;;;;;20.60;12.77;;;;;;;5.48;99.29;100577.06;4988030;28;20217;-73
2021/05/01 03:38:22;;;;;;;26.20;14.50;;;;;;;5.49;99.32;100570.19;4983580;28;20582;-73
2021/05/01 03:40:49;;;;;;;20.77;12.83;;;;;;;5.47;99.44;100577.06;4980339;28;20241;-72
2021/05/01 03:43:15;;;;;;;23.43;13.70;;;;;;;5.47;99.45;100572.78;4987492;28;20206;-72
2021/05/01 03:45:41;;;;;;;22.57;13.00;;;;;;;5.50;99.36;100574.47;4987165;28;20213;-73
2021/05/01 03:48:08;;;;;;;20.87;13.13;;;;;;;5.50;99.38;100575.38;4988486;28;20968;-72
2021/05/01 03:50:34;;;;;;;24.43;13.00;;;;;;;5.49;99.61;100567.59;4989403;28;20594;-72
2021/05/01 03:53:01;;;;;;;23.80;12.73;;;;;;;5.49;99.49;100576.22;4987410;28;20733;-72
2021/05/01 03:55:27;;;;;;;22.03;13.33;;;;;;;5.49;99.34;100575.38;4984847;28;20284;-72
2021/05/01 03:57:54;;;;;;;22.73;13.03;;;;;;;5.50;99.42;100585.72;4984180;28;20214;-72
2021/05/01 04:00:21;;;;;;;24.93;13.60;;;;;;;5.52;99.58;100584.81;4986086;28;20831;-72
2021/05/01 04:02:47;;;;;;;20.27;12.30;;;;;;;5.53;99.30;100594.31;4985155;28;20214;-72
2021/05/01 04:05:14;;;;;;;23.93;13.33;;;;;;;5.52;99.33;100598.59;4979860;28;20339;-72
2021/05/01 04:07:40;;;;;;;24.97;13.87;;;;;;;5.57;99.52;100601.19;4983842;28;20285;-72
2021/05/01 04:10:07;;;;;;;19.37;12.00;;;;;;;5.58;99.37;100614.09;4990106;28;20229;-72
2021/05/01 04:12:33;;;;;;;22.47;13.30;;;;;;;5.63;99.37;100619.25;4985441;28;20204;-72
2021/05/01 04:15:00;;;;;;;20.37;11.60;;;;;;;5.64;99.20;100614.03;4989055;28;20209;-72
2021/05/01 04:17:26;;;;;;;22.33;13.47;;;;;;;5.67;99.25;100618.38;4982519;28;20942;-72
2021/05/01 04:19:52;;;;;;;23.50;12.60;;;;;;;5.69;98.87;100614.88;4979022;28;20206;-72
2021/05/01 04:22:18;;;;;;;20.83;13.03;;;;;;;5.74;98.92;100607.09;4984083;28;20225;-72
2021/05/01 04:24:44;;;;;;;22.07;13.47;;;;;;;5.78;99.15;100600.19;4984148;28;20280;-72
2021/05/01 04:27:10;;;;;;;23.93;14.00;;;;;;;5.79;98.64;100587.22;4984361;28;20304;-72
2021/05/01 04:29:36;;;;;;;24.47;12.90;;;;;;;5.83;98.41;100591.50;4987917;28;20659;-72
2021/05/01 04:32:02;;;;;;;22.93;13.57;;;;;;;5.85;98.48;100597.53;4983576;28;20550;-72
2021/05/01 04:34:29;;;;;;;24.23;13.83;;;;;;;5.88;98.01;100607.00;4984896;28;20233;-72
2021/05/01 04:36:55;;;;;;;24.60;14.70;;;;;;;5.91;97.56;100608.72;4982195;28;20217;-72
2021/05/01 04:39:21;;;;;;;22.23;13.37;;;;;;;5.95;97.72;100613.00;4987403;28;20263;-72
2021/05/01 04:41:47;;;;;;;22.27;14.53;;;;;;;5.98;97.27;100619.06;4986246;28;20224;-72
2021/05/01 04:44:13;;;;;;;21.80;13.03;;;;;;;6.01;97.30;100610.41;4985459;28;20287;-72
2021/05/01 04:46:39;;;;;;;22.77;14.17;;;;;;;6.02;96.67;100612.13;4984710;28;20310;-72
2021/05/01 04:49:07;;;;;;;21.57;13.70;;;;;;;6.04;96.43;100605.19;4984501;28;20204;-72
2021/05/01 04:51:33;;;;;;;18.00;12.17;;;;;;;6.08;96.59;100601.72;4986416;28;20209;-72
2021/05/01 04:53:59;;;;;;;22.03;12.00;;;;;;;6.09;96.33;100603.44;4983784;28;20220;-72
2021/05/01 04:56:25;;;;;;;23.30;13.10;;;;;;;6.13;96.10;100602.53;4986926;28;20221;-72
2021/05/01 04:58:51;;;;;;;19.57;11.67;;;;;;;6.14;95.75;100601.69;4984640;28;20229;-72
2021/05/01 05:01:17;;;;;;;20.93;12.77;;;;;;;6.16;95.65;100615.47;4984015;28;20749;-72
2021/05/01 05:03:43;;;;;;;19.40;12.63;;;;;;;6.22;95.73;100617.13;4981901;28;20575;-72
2021/05/01 05:06:10;;;;;;;20.77;13.53;;;;;;;6.23;95.62;100614.53;4989051;28;20245;-72
2021/05/01 05:08:36;;;;;;;21.87;12.90;;;;;;;6.29;95.64;100612.75;4988670;28;20611;-72
2021/05/01 05:11:02;;;;;;;22.70;13.73;;;;;;;6.28;95.25;100611.91;4983728;28;20678;-72
2021/05/01 05:13:28;;;;;;;21.00;12.60;;;;;;;6.33;95.07;100604.09;4986073;28;20224;-72
2021/05/01 05:15:55;;;;;;;20.23;13.43;;;;;;;6.30;94.66;100611.88;4984757;28;20225;-72
2021/05/01 05:18:21;;;;;;;22.70;12.60;;;;;;;6.35;94.97;100617.88;4975992;28;20242;-72
2021/05/01 05:20:47;;;;;;;22.37;13.03;;;;;;;6.34;94.56;100618.78;4987121;28;20263;-72
2021/05/01 05:23:14;;;;;;;20.10;12.37;;;;;;;6.41;94.67;100613.50;4985122;28;20205;-72
2021/05/01 05:25:40;;;;;;;22.90;13.60;;;;;;;6.43;94.39;100611.75;4982855;28;20201;-72
2021/05/01 05:28:06;;;;;;;20.70;12.50;;;;;;;6.51;94.94;100614.28;4986109;28;20859;-72
2021/05/01 05:30:32;;;;;;;22.20;12.77;;;;;;;6.56;94.25;100616.81;4986078;28;20212;-72
2021/05/01 05:32:59;;;;;;;23.00;14.17;;;;;;;6.55;93.67;100612.53;4982111;28;20689;-73
2021/05/01 05:35:25;;;;;;;20.47;12.57;;;;;;;6.59;93.72;100621.97;4977808;28;20201;-72
2021/05/01 05:37:51;;;;;;;21.00;13.13;;;;;;;6.62;93.51;100619.38;4983586;28;20218;-72
2021/05/01 05:40:17;;;;;;;22.47;14.07;;;;;;;6.68;93.39;100621.88;4985201;28;20204;-72
2021/05/01 05:42:44;;;;;;;20.83;13.10;;;;;;;6.69;92.81;100627.94;4984468;28;20579;-72
2021/05/01 05:45:12;;;;;;;21.70;13.30;;;;;;;6.71;93.01;100631.38;4985595;28;20224;-72
2021/05/01 05:47:38;;;;;;;21.20;13.47;;;;;;;6.73;92.74;100627.88;4985678;28;20229;-72
2021/05/01 05:50:05;;;;;;;21.93;13.50;;;;;;;6.75;92.63;100646.84;4985197;28;20204;-72
2021/05/01 05:52:31;;;;;;;25.47;13.93;;;;;;;6.82;93.07;100650.25;4984302;28;20198;-72
2021/05/01 05:54:59;;;;;;;24.47;14.27;;;;;;;6.86;92.32;100638.13;4982011;28;20200;-72
2021/05/01 05:57:26;;;;;;;21.03;13.63;;;;;;;6.88;91.49;100629.47;4979075;28;20221;-72
2021/05/01 05:59:52;;;;;;;21.33;12.83;;;;;;;6.92;91.35;100628.53;4984151;28;20198;-72
2021/05/01 06:02:21;;;;;;;21.67;14.20;;;;;;;7.03;91.52;100638.78;4980721;28;20296;-73
2021/05/01 06:04:54;;;;;;;20.37;14.27;;;;;;;7.16;91.67;100644.72;4986082;28;20216;-72
2021/05/01 06:07:23;;;;;;;21.20;14.03;;;;;;;7.20;91.29;100643.78;4967021;28;20240;-72
2021/05/01 06:09:51;;;;;;;20.87;14.17;;;;;;;7.23;90.51;100645.47;4980529;28;20228;-72
2021/05/01 06:12:19;;;;;;;20.53;13.43;;;;;;;7.15;89.46;100636.06;4983436;28;20294;-72
2021/05/01 06:14:46;;;;;;;21.10;13.83;;;;;;;7.17;90.33;100628.25;4981922;28;20643;-72
2021/05/01 06:17:14;;;;;;;23.13;14.33;;;;;;;7.17;89.71;100623.94;4988045;28;20574;-73
2021/05/01 06:19:41;;;;;;;22.97;13.80;;;;;;;7.22;89.54;100618.69;4984141;28;20267;-72
2021/05/01 06:22:08;;;;;;;22.93;13.40;;;;;;;7.22;89.10;100618.69;4985261;28;20220;-72
2021/05/01 06:24:34;;;;;;;21.67;13.83;;;;;;;7.23;89.22;100620.44;4985636;28;20613;-73
2021/05/01 06:27:01;;;;;;;23.30;14.13;;;;;;;7.26;89.48;100625.56;4985481;28;20559;-72
2021/05/01 06:29:29;;;;;;;23.63;14.30;;;;;;;7.25;89.59;100623.00;4983261;28;20197;-72
2021/05/01 06:31:56;;;;;;;27.17;14.43;;;;;;;7.31;90.00;100628.94;4985799;28;20209;-72
2021/05/01 06:34:22;;;;;;;18.40;12.67;;;;;;;7.38;89.62;100651.34;4982369;28;20194;-72
2021/05/01 06:36:49;;;;;;;19.33;13.47;;;;;;;7.37;88.54;100657.41;4984950;28;20650;-72
2021/05/01 06:39:15;;;;;;;21.57;13.10;;;;;;;7.38;88.87;100655.66;4983280;28;20844;-72
2021/05/01 06:41:53;;;;;;;21.70;13.27;;;;;;;7.37;88.94;100644.44;4983362;28;20288;-72
2021/05/01 06:44:37;;;;;;;21.47;13.33;;;;;;;7.38;88.61;100653.06;4974777;28;20229;-72
2021/05/01 06:47:05;;;;;;;20.57;12.53;;;;;;;7.38;88.59;100651.34;4983632;28;20244;-72
2021/05/01 06:49:39;;;;;;;20.77;14.10;;;;;;;7.38;88.42;100646.16;4978799;28;20230;-72
2021/05/01 06:52:06;;;;;;;25.33;15.13;;;;;;;7.39;88.30;100634.06;4980974;28;20665;-72
2021/05/01 06:54:33;;;;;;;21.07;13.50;;;;;;;7.44;88.20;100640.03;4980166;28;20205;-72
2021/05/01 06:56:59;;;;;;;21.17;12.50;;;;;;;7.52;88.43;100632.16;4977673;28;20765;-72
2021/05/01 06:59:26;;;;;;;22.40;13.03;;;;;;;7.53;87.62;100642.50;4984137;28;20221;-72
2021/05/01 07:01:52;;;;;;;20.33;12.97;;;;;;;7.63;87.70;100639.78;4977708;28;20614;-72
2021/05/01 07:04:19;;;;;;;23.07;13.37;;;;;;;7.72;87.61;100639.66;4978501;28;20205;-72
2021/05/01 07:06:47;;;;;;;19.80;13.67;;;;;;;7.74;86.81;100636.16;4978194;28;20233;-72
2021/05/01 07:09:13;;;;;;;21.77;14.03;;;;;;;7.86;87.36;100637.75;4978508;28;20197;-72
2021/05/01 07:11:41;;;;;;;17.90;12.47;;;;;;;7.95;87.30;100636.75;4974713;28;20232;-73
2021/05/01 07:14:09;;;;;;;18.77;11.73;;;;;;;8.06;87.13;100637.44;4977537;28;20185;-72
2021/05/01 07:16:35;;;;;;;22.00;13.83;;;;;;;8.07;85.50;100641.75;4982680;28;20815;-72
2021/05/01 07:19:01;;;;;;;20.90;13.43;;;;;;;8.07;85.29;100633.09;4976330;28;20221;-72
2021/05/01 07:21:28;;;;;;;22.67;14.10;;;;;;;8.23;86.86;100633.69;4981706;28;20198;-72
2021/05/01 07:23:54;;;;;;;18.97;13.07;;;;;;;8.27;84.97;100640.56;4985101;28;20216;-73
2021/05/01 07:26:22;;;;;;;21.43;13.57;;;;;;;8.24;84.71;100633.66;4981220;28;20721;-73
2021/05/01 07:28:52;;;;;;;22.07;13.57;;;;;;;8.39;85.59;100627.38;4984009;28;20201;-72
2021/05/01 07:31:22;;;;;;;22.07;14.00;;;;;;;8.37;84.19;100628.28;4982242;28;20214;-72
2021/05/01 07:33:52;;;;;;;18.33;12.70;;;;;;;8.47;84.43;100633.31;4980587;28;20230;-73
2021/05/01 07:36:21;;;;;;;18.60;12.50;;;;;;;8.44;84.23;100635.09;4981654;28;20247;-73
2021/05/01 07:38:48;;;;;;;18.90;12.33;;;;;;;8.51;84.15;100635.00;4977908;28;20227;-72
2021/05/01 07:41:15;;;;;;;19.17;12.30;;;;;;;8.66;83.71;100641.66;4981878;28;20189;-72
2021/05/01 07:43:46;;;;;;;22.93;13.03;;;;;;;8.68;82.75;100634.66;4980428;28;20199;-72
2021/05/01 07:46:14;;;;;;;20.37;14.20;;;;;;;8.71;82.61;100639.81;4982983;28;20258;-72
2021/05/01 07:48:41;;;;;;;22.27;13.30;;;;;;;8.84;82.57;100637.84;4978412;28;20255;-72
2021/05/01 07:51:07;;;;;;;18.77;12.63;;;;;;;8.89;82.34;100640.38;4982024;28;20606;-72
2021/05/01 07:53:33;;;;;;;18.67;12.67;;;;;;;8.99;81.43;100641.91;4985053;28;20252;-73
2021/05/01 07:56:01;;;;;;;20.67;12.80;;;;;;;9.07;82.03;100646.97;4981122;28;20223;-72
2021/05/01 07:58:27;;;;;;;17.00;11.17;;;;;;;9.32;81.73;100638.66;4982205;28;20593;-72
2021/05/01 08:00:53;;;;;;;17.37;11.87;;;;;;;9.42;80.23;100638.44;4978393;28;20211;-73
2021/05/01 08:03:21;;;;;;;20.37;12.77;;;;;;;9.35;79.38;100646.41;4975311;28;20236;-72
2021/05/01 08:05:47;;;;;;;18.00;12.57;;;;;;;9.31;79.42;100645.63;4978810;28;20276;-73
2021/05/01 08:08:13;;;;;;;17.97;11.17;;;;;;;9.62;79.33;100647.56;4979792;28;20199;-73
2021/05/01 08:10:39;;;;;;;18.77;12.27;;;;;;;9.99;78.58;100641.50;4982031;28;20753;-72
2021/05/01 08:13:06;;;;;;;15.53;10.57;;;;;;;10.07;75.33;100663.03;4978932;28;20195;-72
2021/05/01 08:15:33;;;;;;;15.70;10.43;;;;;;;10.02;74.20;100660.53;4986733;28;20992;-72
2021/05/01 08:18:00;;;;;;;16.73;11.43;;;;;;;9.95;74.81;100658.13;4987247;28;20710;-73
2021/05/01 08:20:28;;;;;;;15.53;10.00;;;;;;;9.99;76.19;100658.03;4990056;28;20193;-73
2021/05/01 08:22:54;;;;;;;15.37;10.03;;;;;;;10.37;77.36;100660.63;4983856;28;20562;-72
2021/05/01 08:25:20;;;;;;;12.77;9.50;;;;;;;10.40;73.14;100673.59;4986986;28;20719;-73
2021/05/01 08:27:46;;;;;;;13.97;9.17;;;;;;;10.33;72.31;100672.03;4986758;28;20304;-73
2021/05/01 08:30:17;;;;;;;15.50;10.00;;;;;;;10.26;73.18;100662.63;4981459;28;20201;-73
2021/05/01 08:32:43;;;;;;;12.97;9.50;;;;;;;10.31;74.75;100647.72;4987240;28;20236;-72
2021/05/01 08:35:09;;;;;;;14.30;9.27;;;;;;;10.52;75.38;100641.16;4976950;28;20224;-73
2021/05/01 08:37:35;;;;;;;15.47;9.27;;;;;;;10.86;74.31;100642.88;4981392;28;20683;-72
2021/05/01 08:40:03;;;;;;;11.10;8.10;;;;;;;11.23;71.69;100649.69;4984028;28;20232;-73
2021/05/01 08:42:29;;;;;;;11.70;7.60;;;;;;;11.15;67.68;100661.19;4986902;28;20213;-73
2021/05/01 08:44:56;;;;;;;4.97;4.20;;;;;;;10.92;63.59;100671.38;4987709;28;20325;-73
2021/05/01 08:47:24;;;;;;;12.23;7.53;;;;;;;10.90;67.15;100660.13;4981007;28;20230;-73
2021/05/01 08:49:50;;;;;;;9.80;6.73;;;;;;;11.10;67.40;100654.38;4986050;28;20198;-73
2021/05/01 08:52:16;;;;;;;9.80;6.20;;;;;;;11.11;65.95;100649.09;4967168;28;20245;-73
2021/05/01 08:54:42;;;;;;;11.77;7.57;;;;;;;11.06;66.23;100647.53;4977574;28;20199;-73
2021/05/01 08:57:24;;;;;;;8.67;6.40;;;;;;;11.07;66.71;100642.28;4984759;28;20796;-73
2021/05/01 08:59:50;;;;;;;10.23;6.43;;;;;;;11.13;65.67;100634.28;4981542;28;20217;-72
2021/05/01 09:02:19;;;;;;;8.67;6.23;;;;;;;11.25;65.25;100638.28;4988235;28;20234;-72
2021/05/01 09:04:48;;;;;;;10.17;7.37;;;;;;;11.33;67.52;100627.63;4980576;28;20213;-72
2021/05/01 09:07:16;;;;;;;10.87;7.00;;;;;;;11.47;66.28;100627.22;4981516;28;20284;-73
2021/05/01 09:09:42;;;;;;;9.53;6.90;;;;;;;11.48;66.48;100629.78;4988245;28;20197;-73
2021/05/01 09:12:09;;;;;;;9.37;6.57;;;;;;;11.61;64.77;100635.50;4977666;28;20288;-73
2021/05/01 09:14:37;;;;;;;11.30;7.53;;;;;;;11.61;63.52;100645.06;4982324;28;20210;-73
2021/05/01 09:17:05;;;;;;;12.20;7.37;;;;;;;11.68;65.27;100639.63;4986973;28;20227;-73
2021/05/01 09:19:34;;;;;;;10.07;6.80;;;;;;;11.53;63.49;100645.31;4982895;28;20245;-72
2021/05/01 09:22:03;;;;;;;9.27;6.03;;;;;;;11.41;62.76;100641.31;4976461;28;20197;-73
2021/05/01 09:24:29;;;;;;;8.23;5.03;;;;;;;11.56;63.33;100647.84;4978197;28;20748;-72
2021/05/01 09:26:56;;;;;;;7.10;5.13;;;;;;;11.52;62.22;100649.69;4983901;28;20223;-73
2021/05/01 09:29:32;;;;;;;7.93;5.40;;;;;;;11.57;61.74;100652.16;4977678;28;20198;-73
2021/05/01 09:32:01;;;;;;;8.37;6.10;;;;;;;11.47;62.19;100641.13;4980739;28;20207;-73
2021/05/01 09:34:43;;;;;;;6.83;5.27;;;;;;;11.61;62.87;100637.25;4981854;28;20856;-72
2021/05/01 09:37:11;;;;;;;7.80;5.43;;;;;;;11.84;62.34;100633.94;4983780;28;20228;-73
2021/05/01 09:39:47;;;;;;;8.63;5.03;;;;;;;12.13;61.17;100633.03;4986619;28;20223;-73
2021/05/01 09:42:16;;;;;;;5.77;4.10;;;;;;;12.45;61.33;100633.72;4983464;28;20214;-73
2021/05/01 09:44:42;;;;;;;6.37;4.57;;;;;;;12.55;59.41;100642.97;4984396;28;20202;-73
2021/05/01 09:47:12;;;;;;;7.07;4.93;;;;;;;12.60;57.85;100648.91;4981895;28;20261;-73
2021/05/01 09:49:40;;;;;;;5.97;4.43;;;;;;;12.82;59.85;100641.19;4983393;28;20859;-72
2021/05/01 09:52:09;;;;;;;7.53;5.23;;;;;;;12.93;60.83;100642.53;4977937;28;21377;-73
2021/05/01 09:54:38;;;;;;;5.87;4.50;;;;;;;13.26;61.87;100638.72;4977047;28;20265;-73
2021/05/01 09:57:05;;;;;;;7.03;5.10;;;;;;;13.59;59.50;100643.59;4980921;28;20264;-73
2021/05/01 09:59:36;;;;;;;6.63;4.60;;;;;;;13.82;58.72;100639.25;4980750;28;20272;-71
2021/05/01 10:02:02;;;;;;;4.93;3.83;;;;;;;13.95;54.54;100642.25;4976300;28;20258;-72
2021/05/01 10:04:28;;;;;;;5.93;4.27;;;;;;;13.83;54.40;100639.19;4978051;28;20197;-72
2021/05/01 10:06:57;;;;;;;6.60;4.53;;;;;;;13.44;55.18;100633.75;4981356;28;20284;-72
2021/05/01 10:09:25;;;;;;;7.67;4.87;;;;;;;13.43;55.42;100632.00;4983368;28;20200;-71
2021/05/01 10:12:04;;;;;;;6.23;4.80;;;;;;;13.22;54.99;100631.88;4982173;28;20280;-73
2021/05/01 10:14:36;;;;;;;5.30;4.43;;;;;;;13.08;54.35;100642.00;4981191;28;20284;-72
2021/05/01 10:17:03;;;;;;;5.37;4.03;;;;;;;13.13;56.61;100623.50;4980010;28;20299;-72
2021/05/01 10:19:50;;;;;;;5.90;3.90;;;;;;;12.93;54.66;100621.59;4975934;28;20305;-72
2021/05/01 10:22:31;;;;;;;5.23;4.43;;;;;;;12.93;59.30;100608.53;4978361;28;20185;-72
2021/05/01 10:24:58;;;;;;;5.27;4.40;;;;;;;13.02;55.20;100623.91;4977301;28;20582;-72
2021/05/01 10:27:26;;;;;;;4.80;4.07;;;;;;;13.12;55.43;100625.28;4977139;28;20621;-71
2021/05/01 10:30:08;;;;;;;4.50;3.70;;;;;;;13.49;55.82;100625.69;4980538;28;20208;-72
2021/05/01 10:32:42;;;;;;;5.20;3.80;;;;;;;13.86;53.72;100627.75;4971045;28;20651;-72
2021/05/01 10:35:09;;;;;;;4.50;3.80;;;;;;;13.70;52.63;100627.50;4974552;28;20244;-72
2021/05/01 10:37:40;;;;;;;6.97;4.57;;;;;;;13.48;53.04;100626.63;4968852;28;20227;-72
2021/05/01 10:40:07;;;;;;;5.23;4.07;;;;;;;13.27;51.67;100631.72;4969126;28;20586;-72
2021/05/01 10:42:34;;;;;;;4.80;3.87;;;;;;;13.39;53.11;100626.03;4977908;28;20214;-72
2021/05/01 10:45:01;;;;;;;5.60;4.50;;;;;;;13.38;53.24;100626.09;4969355;28;20212;-72
2021/05/01 10:47:28;;;;;;;4.87;4.07;;;;;;;13.28;52.07;100636.03;4976772;28;20949;-72
2021/05/01 10:49:55;;;;;;;5.57;4.70;;;;;;;13.41;53.42;100634.69;4974386;28;20269;-72
2021/05/01 10:52:23;;;;;;;4.67;4.17;;;;;;;13.33;52.93;100642.00;4974338;28;20194;-72
2021/05/01 10:55:00;;;;;;;6.63;4.53;;;;;;;13.29;51.20;100642.13;4980430;28;20265;-72
2021/05/01 10:57:27;;;;;;;6.80;4.50;;;;;;;13.16;51.24;100645.19;4978462;28;20233;-72
2021/05/01 11:00:04;;;;;;;5.90;4.43;;;;;;;13.07;52.02;100638.53;4976101;28;20731;-72
2021/05/01 11:02:35;;;;;;;7.10;4.80;;;;;;;13.40;55.08;100624.28;4975879;28;20674;-72
2021/05/01 11:05:05;;;;;;;6.80;5.20;;;;;;;13.68;54.54;100631.91;4973873;28;20209;-72
2021/05/01 11:07:50;;;;;;;6.50;4.63;;;;;;;13.95;56.19;100624.75;4973876;28;20230;-71
2021/05/01 11:10:17;;;;;;;5.90;4.77;;;;;;;14.11;51.97;100638.09;4980243;28;20650;-72
2021/05/01 11:12:50;;;;;;;7.03;4.90;;;;;;;14.38;52.27;100630.00;4977737;28;20221;-72
2021/05/01 11:15:19;;;;;;;5.60;4.73;;;;;;;14.72;53.00;100621.59;4978746;28;20210;-72
2021/05/01 11:17:51;;;;;;;6.60;5.13;;;;;;;14.98;52.64;100626.59;4976102;28;20591;-72
2021/05/01 11:20:18;;;;;;;6.53;5.10;;;;;;;15.12;49.68;100626.84;4977749;28;20214;-72